ADDS TAF Data INFO
IDs: Format: Raw Decoded Include METARs

Data at: 2056 UTC 24 Apr 2018

KDDC 242052Z AUTO 35019G28KT 10SM OVC011 08/04 A3026 RMK AO2 PK WND 36031/2038 SLP246 T00830044 56001

KDDC 241730Z 2418/2518 35019KT P6SM OVC010
  TEMPO 2502/2505 4SM -SHRA OVC015
  FM250500 34015KT 6SM -SHRA OVC015
  FM250600 34015KT 6SM SHRA OVC020
  FM250800 33010KT 6SM SHRA BKN045